Norbank — PGIS — position and weather

sailwx.info

Track history (hours):
 
Tides and Currents Weather Stations Pressure Air Temp Water Temp Dewpoint Dewpoint Depression Visibility Wind Speed Wind Dir Waves Ship Positions

Norbank

Operator: P & O Ferries

Last reported at 2014-Nov-24 04:21 UTC. Time now 2014-Nov-24 15:13 UTC.
Position N 53°21' W 006°01'.

Length 167 m; draft 5.8 m.

Type: Ship (hazmat cat A). MMSI: 246213000.

Date/timePositionNaut miles runAvg speedWind from/ knotsBaromVisibWave heightAir tempDewpointWater temp
2014-Nov-24 04:21N 53°21' W 006°01'8316.5
2014-Nov-23 23:20N 53°33' W 003°43'1215.4
2014-Nov-23 22:33N 53°33' W 003°23'1313.6
2014-Nov-23 21:33N 53°27' W 003°02'1 0.6
2014-Nov-23 20:30N 53°27' W 003°01'0 0.0
2014-Nov-23 19:18N 53°27' W 003°01'0 0.0
2014-Nov-23 18:29N 53°27' W 003°01'0 0.0
2014-Nov-23 17:29N 53°27' W 003°01'0 0.0
2014-Nov-23 16:28N 53°27' W 003°01'0 0.0
2014-Nov-23 15:28N 53°27' W 003°01'0 0.0
2014-Nov-23 14:33N 53°27' W 003°01'0 0.0
2014-Nov-23 13:33N 53°27' W 003°01'0 0.0
2014-Nov-23 12:33N 53°27' W 003°01'0 0.0
2014-Nov-23 11:32N 53°27' W 003°01'0 0.0
2014-Nov-23 10:26N 53°27' W 003°01'0 0.0
2014-Nov-23 09:31N 53°27' W 003°01'0 0.0
2014-Nov-23 08:31N 53°27' W 003°01'0 0.0
2014-Nov-23 07:30N 53°27' W 003°01'0 0.0
2014-Nov-23 06:30N 53°27' W 003°01'0 0.5
2014-Nov-23 05:33N 53°27' W 003°01'7 6.7
2014-Nov-23 04:34N 53°32' W 003°09'1615.5
2014-Nov-23 03:32N 53°31' W 003°36'11 0.7
2014-Nov-22 13:11N 53°33' W 003°53'1220.0
2014-Nov-22 12:33N 53°33' W 003°33'1818.5
2014-Nov-22 11:33N 53°28' W 003°03'1 1.2
2014-Nov-22 10:24N 53°27' W 003°01'0 0.0
2014-Nov-22 09:30N 53°27' W 003°01'0 0.0
2014-Nov-22 08:29N 53°27' W 003°01'0 0.0
2014-Nov-22 07:29N 53°27' W 003°01'0 0.0
2014-Nov-22 06:29N 53°27' W 003°01'0 0.0
2014-Nov-22 05:33N 53°27' W 003°01'1 0.6
2014-Nov-22 04:33N 53°27' W 003°01'1312.6
2014-Nov-22 03:33N 53°31' W 003°21'2018.4
2014-Nov-22 02:29N 53°31' W 003°54'3 0.2
2014-Nov-21 12:32N 53°33' W 003°56'1817.9
2014-Nov-21 11:32N 53°33' W 003°26'1515.7
2014-Nov-21 10:33N 53°27' W 003°02'1 0.6
2014-Nov-21 09:30N 53°27' W 003°01'0 0.0
2014-Nov-21 08:24N 53°27' W 003°01'0 0.0
2014-Nov-21 07:29N 53°27' W 003°01'0 0.0
2014-Nov-21 06:29N 53°27' W 003°01'0 0.0
2014-Nov-21 05:33N 53°27' W 003°01'1 0.6
2014-Nov-21 04:33N 53°27' W 003°02'1312.6
2014-Nov-21 03:33N 53°31' W 003°22'1716.1
2014-Nov-21 02:32N 53°32' W 003°49'4 0.3
2014-Nov-20 12:09N 53°33' W 003°55'1117.9
2014-Nov-20 11:32N 53°33' W 003°37'1717.5
2014-Nov-20 10:33N 53°32' W 003°08'6 6.0
2014-Nov-20 09:33N 53°27' W 003°01'0 0.0
2014-Nov-20 08:25N 53°27' W 003°01'0 0.0
2014-Nov-20 07:30N 53°27' W 003°01'0 0.0
2014-Nov-20 06:30N 53°27' W 003°01'0 0.0
2014-Nov-20 05:33N 53°27' W 003°01'1 1.0
2014-Nov-20 04:33N 53°28' W 003°03'1514.5
2014-Nov-20 03:31N 53°32' W 003°27'1717.7
2014-Nov-20 02:33N 53°33' W 003°56'1 0.1
2014-Nov-19 12:18N 53°33' W 003°54'1418.1
2014-Nov-19 11:34N 53°33' W 003°31'1616.3
2014-Nov-19 10:33N 53°29' W 003°05'3 2.6
2014-Nov-19 09:33N 53°27' W 003°01'0 0.0
2014-Nov-19 08:28N 53°27' W 003°01'0 0.0
2014-Nov-19 07:33N 53°27' W 003°01'0 0.0
2014-Nov-19 06:33N 53°27' W 003°01'0 0.0
2014-Nov-19 05:33N 53°27' W 003°01'1 0.6
2014-Nov-19 04:34N 53°27' W 003°01'1514.9
2014-Nov-19 03:33N 53°32' W 003°25'1817.8
2014-Nov-19 02:33N 53°33' W 003°55'9 0.7
2014-Nov-18 12:32N 53°33' W 004°11'1817.9
2014-Nov-18 11:32N 53°33' W 003°41'1717.7
2014-Nov-18 10:34N 53°31' W 003°12'8 7.9
2014-Nov-18 09:34N 53°27' W 003°01'0 0.4
2014-Nov-18 08:28N 53°27' W 003°01'0 0.0
2014-Nov-18 07:28N 53°27' W 003°01'0 0.0
2014-Nov-18 06:33N 53°27' W 003°01'0 0.0
2014-Nov-18 05:27N 53°27' W 003°01'0 0.5
2014-Nov-18 04:33N 53°27' W 003°01'1312.6
2014-Nov-18 03:33N 53°31' W 003°21'1615.8
2014-Nov-18 02:33N 53°32' W 003°47'1 0.0
2014-Nov-16 23:22N 53°33' W 003°47'1416.7
2014-Nov-16 22:31N 53°32' W 003°24'1515.1
2014-Nov-16 21:33N 53°27' W 003°01'1 0.4
2014-Nov-16 20:24N 53°27' W 003°01'0 0.0
2014-Nov-16 19:29N 53°27' W 003°01'0 0.0
2014-Nov-16 18:29N 53°27' W 003°01'0 0.0
2014-Nov-16 17:28N 53°27' W 003°01'0 0.0
2014-Nov-16 16:28N 53°27' W 003°01'0 0.0
2014-Nov-16 15:28N 53°27' W 003°01'0 0.0
2014-Nov-16 14:33N 53°27' W 003°01'0 0.0
2014-Nov-16 13:27N 53°27' W 003°01'0 0.0
2014-Nov-16 12:32N 53°27' W 003°01'0 0.0
2014-Nov-16 11:32N 53°27' W 003°01'0 0.0
2014-Nov-16 10:31N 53°27' W 003°01'0 0.0
2014-Nov-16 09:31N 53°27' W 003°01'0 0.0
2014-Nov-16 08:31N 53°27' W 003°01'0 0.0
2014-Nov-16 07:27N 53°27' W 003°01'0 0.5
2014-Nov-16 06:34N 53°27' W 003°01'4 4.2
2014-Nov-16 05:33N 53°30' W 003°06'1514.4
2014-Nov-16 04:32N 53°31' W 003°31'1515.6
2014-Nov-16 03:33N 53°33' W 003°56'9 0.6
2014-Nov-15 11:33N 53°33' W 003°41'1818.2
2014-Nov-15 10:33N 53°32' W 003°10'7 7.1
2014-Nov-15 09:33N 53°27' W 003°01'0 0.4
2014-Nov-15 08:33N 53°27' W 003°01'0 0.0
2014-Nov-15 07:33N 53°27' W 003°01'0 0.0
2014-Nov-15 06:32N 53°27' W 003°01'0 0.0
2014-Nov-15 05:32N 53°27' W 003°01'0 0.5
2014-Nov-15 04:33N 53°27' W 003°01'6 6.2
2014-Nov-15 03:34N 53°32' W 003°08'2617.9
2014-Nov-15 02:06N 53°33' W 003°52'3 0.2
2014-Nov-14 12:33N 53°33' W 003°57'2019.9
2014-Nov-14 11:33N 53°32' W 003°24'1414.4
2014-Nov-14 10:33N 53°27' W 003°01'0 0.4
2014-Nov-14 09:28N 53°27' W 003°01'0 0.0
2014-Nov-14 08:33N 53°27' W 003°01'0 0.0
2014-Nov-14 07:33N 53°27' W 003°01'0 0.0
2014-Nov-14 06:32N 53°27' W 003°01'0 0.0
2014-Nov-14 05:32N 53°27' W 003°01'1 0.5
2014-Nov-14 04:33N 53°27' W 003°01'  
Track history (hours):
 
Tides and Currents Weather Stations Pressure Air Temp Water Temp Dewpoint Dewpoint Depression Visibility Wind Speed Wind Dir Waves Ship Positions

Norbank

Operator: P & O Ferries

Last reported at 2014-Nov-24 04:21 UTC. Time now 2014-Nov-24 15:13 UTC.
Position N 53°21' W 006°01'.

Length 167 m; draft 5.8 m.

Type: Ship (hazmat cat A). MMSI: 246213000.

Date/timePositionNaut miles runAvg speedWind from/ knotsBaromVisibWave heightAir tempDewpointWater temp
2014-Nov-24 04:21N 53°21' W 006°01'8316.5
2014-Nov-23 23:20N 53°33' W 003°43'1215.4
2014-Nov-23 22:33N 53°33' W 003°23'1313.6
2014-Nov-23 21:33N 53°27' W 003°02'1 0.6
2014-Nov-23 20:30N 53°27' W 003°01'0 0.0
2014-Nov-23 19:18N 53°27' W 003°01'0 0.0
2014-Nov-23 18:29N 53°27' W 003°01'0 0.0
2014-Nov-23 17:29N 53°27' W 003°01'0 0.0
2014-Nov-23 16:28N 53°27' W 003°01'0 0.0
2014-Nov-23 15:28N 53°27' W 003°01'0 0.0
2014-Nov-23 14:33N 53°27' W 003°01'0 0.0
2014-Nov-23 13:33N 53°27' W 003°01'0 0.0
2014-Nov-23 12:33N 53°27' W 003°01'0 0.0
2014-Nov-23 11:32N 53°27' W 003°01'0 0.0
2014-Nov-23 10:26N 53°27' W 003°01'0 0.0
2014-Nov-23 09:31N 53°27' W 003°01'0 0.0
2014-Nov-23 08:31N 53°27' W 003°01'0 0.0
2014-Nov-23 07:30N 53°27' W 003°01'0 0.0
2014-Nov-23 06:30N 53°27' W 003°01'0 0.5
2014-Nov-23 05:33N 53°27' W 003°01'7 6.7
2014-Nov-23 04:34N 53°32' W 003°09'1615.5
2014-Nov-23 03:32N 53°31' W 003°36'11 0.7
2014-Nov-22 13:11N 53°33' W 003°53'1220.0
2014-Nov-22 12:33N 53°33' W 003°33'1818.5
2014-Nov-22 11:33N 53°28' W 003°03'1 1.2
2014-Nov-22 10:24N 53°27' W 003°01'0 0.0
2014-Nov-22 09:30N 53°27' W 003°01'0 0.0
2014-Nov-22 08:29N 53°27' W 003°01'0 0.0
2014-Nov-22 07:29N 53°27' W 003°01'0 0.0
2014-Nov-22 06:29N 53°27' W 003°01'0 0.0
2014-Nov-22 05:33N 53°27' W 003°01'1 0.6
2014-Nov-22 04:33N 53°27' W 003°01'1312.6
2014-Nov-22 03:33N 53°31' W 003°21'2018.4
2014-Nov-22 02:29N 53°31' W 003°54'3 0.2
2014-Nov-21 12:32N 53°33' W 003°56'1817.9
2014-Nov-21 11:32N 53°33' W 003°26'1515.7
2014-Nov-21 10:33N 53°27' W 003°02'1 0.6
2014-Nov-21 09:30N 53°27' W 003°01'0 0.0
2014-Nov-21 08:24N 53°27' W 003°01'0 0.0
2014-Nov-21 07:29N 53°27' W 003°01'0 0.0
2014-Nov-21 06:29N 53°27' W 003°01'0 0.0
2014-Nov-21 05:33N 53°27' W 003°01'1 0.6
2014-Nov-21 04:33N 53°27' W 003°02'1312.6
2014-Nov-21 03:33N 53°31' W 003°22'1716.1
2014-Nov-21 02:32N 53°32' W 003°49'4 0.3
2014-Nov-20 12:09N 53°33' W 003°55'1117.9
2014-Nov-20 11:32N 53°33' W 003°37'1717.5
2014-Nov-20 10:33N 53°32' W 003°08'6 6.0
2014-Nov-20 09:33N 53°27' W 003°01'0 0.0
2014-Nov-20 08:25N 53°27' W 003°01'0 0.0
2014-Nov-20 07:30N 53°27' W 003°01'0 0.0
2014-Nov-20 06:30N 53°27' W 003°01'0 0.0
2014-Nov-20 05:33N 53°27' W 003°01'1 1.0
2014-Nov-20 04:33N 53°28' W 003°03'1514.5
2014-Nov-20 03:31N 53°32' W 003°27'1717.7
2014-Nov-20 02:33N 53°33' W 003°56'1 0.1
2014-Nov-19 12:18N 53°33' W 003°54'1418.1
2014-Nov-19 11:34N 53°33' W 003°31'1616.3
2014-Nov-19 10:33N 53°29' W 003°05'3 2.6
2014-Nov-19 09:33N 53°27' W 003°01'0 0.0
2014-Nov-19 08:28N 53°27' W 003°01'0 0.0
2014-Nov-19 07:33N 53°27' W 003°01'0 0.0
2014-Nov-19 06:33N 53°27' W 003°01'0 0.0
2014-Nov-19 05:33N 53°27' W 003°01'1 0.6
2014-Nov-19 04:34N 53°27' W 003°01'1514.9
2014-Nov-19 03:33N 53°32' W 003°25'1817.8
2014-Nov-19 02:33N 53°33' W 003°55'9 0.7
2014-Nov-18 12:32N 53°33' W 004°11'1817.9
2014-Nov-18 11:32N 53°33' W 003°41'1717.7
2014-Nov-18 10:34N 53°31' W 003°12'8 7.9
2014-Nov-18 09:34N 53°27' W 003°01'0 0.4
2014-Nov-18 08:28N 53°27' W 003°01'0 0.0
2014-Nov-18 07:28N 53°27' W 003°01'0 0.0
2014-Nov-18 06:33N 53°27' W 003°01'0 0.0
2014-Nov-18 05:27N 53°27' W 003°01'0 0.5
2014-Nov-18 04:33N 53°27' W 003°01'1312.6
2014-Nov-18 03:33N 53°31' W 003°21'1615.8
2014-Nov-18 02:33N 53°32' W 003°47'1 0.0
2014-Nov-16 23:22N 53°33' W 003°47'1416.7
2014-Nov-16 22:31N 53°32' W 003°24'1515.1
2014-Nov-16 21:33N 53°27' W 003°01'1 0.4
2014-Nov-16 20:24N 53°27' W 003°01'0 0.0
2014-Nov-16 19:29N 53°27' W 003°01'0 0.0
2014-Nov-16 18:29N 53°27' W 003°01'0 0.0
2014-Nov-16 17:28N 53°27' W 003°01'0 0.0
2014-Nov-16 16:28N 53°27' W 003°01'0 0.0
2014-Nov-16 15:28N 53°27' W 003°01'0 0.0
2014-Nov-16 14:33N 53°27' W 003°01'0 0.0
2014-Nov-16 13:27N 53°27' W 003°01'0 0.0
2014-Nov-16 12:32N 53°27' W 003°01'0 0.0
2014-Nov-16 11:32N 53°27' W 003°01'0 0.0
2014-Nov-16 10:31N 53°27' W 003°01'0 0.0
2014-Nov-16 09:31N 53°27' W 003°01'0 0.0
2014-Nov-16 08:31N 53°27' W 003°01'0 0.0
2014-Nov-16 07:27N 53°27' W 003°01'0 0.5
2014-Nov-16 06:34N 53°27' W 003°01'4 4.2
2014-Nov-16 05:33N 53°30' W 003°06'1514.4
2014-Nov-16 04:32N 53°31' W 003°31'1515.6
2014-Nov-16 03:33N 53°33' W 003°56'9 0.6
2014-Nov-15 11:33N 53°33' W 003°41'1818.2
2014-Nov-15 10:33N 53°32' W 003°10'7 7.1
2014-Nov-15 09:33N 53°27' W 003°01'0 0.4
2014-Nov-15 08:33N 53°27' W 003°01'0 0.0
2014-Nov-15 07:33N 53°27' W 003°01'0 0.0
2014-Nov-15 06:32N 53°27' W 003°01'0 0.0
2014-Nov-15 05:32N 53°27' W 003°01'0 0.5
2014-Nov-15 04:33N 53°27' W 003°01'6 6.2
2014-Nov-15 03:34N 53°32' W 003°08'2617.9
2014-Nov-15 02:06N 53°33' W 003°52'3 0.2
2014-Nov-14 12:33N 53°33' W 003°57'2019.9
2014-Nov-14 11:33N 53°32' W 003°24'1414.4
2014-Nov-14 10:33N 53°27' W 003°01'0 0.4
2014-Nov-14 09:28N 53°27' W 003°01'0 0.0
2014-Nov-14 08:33N 53°27' W 003°01'0 0.0
2014-Nov-14 07:33N 53°27' W 003°01'0 0.0
2014-Nov-14 06:32N 53°27' W 003°01'0 0.0
2014-Nov-14 05:32N 53°27' W 003°01'1 0.5
2014-Nov-14 04:33N 53°27' W 003°01'  

Dump ship's entire track history